createdAt,value
2019-03-11T00:01:07.118Z,0.65
2019-03-11T00:03:43.284Z,0.68
2019-03-11T00:06:18.994Z,0.50
2019-03-11T00:08:54.779Z,0.50
2019-03-11T00:11:30.643Z,0.50
2019-03-11T00:14:06.691Z,0.80
2019-03-11T00:16:42.539Z,0.70
2019-03-11T00:19:18.403Z,0.60
2019-03-11T00:21:54.262Z,0.85
2019-03-11T00:24:30.105Z,0.72
2019-03-11T00:27:05.969Z,1.00
2019-03-11T00:29:41.819Z,0.90
2019-03-11T00:32:17.663Z,1.40
2019-03-11T00:34:54.541Z,1.25
2019-03-11T00:37:30.513Z,1.60
2019-03-11T00:40:09.469Z,1.30
2019-03-11T00:42:45.385Z,1.50
2019-03-11T00:45:21.243Z,1.72
2019-03-11T00:48:02.109Z,1.75
2019-03-11T00:50:34.704Z,1.72
2019-03-11T00:53:10.542Z,1.70
2019-03-11T00:55:46.401Z,1.90
2019-03-11T00:58:22.257Z,1.32
2019-03-11T01:00:58.114Z,1.50
2019-03-11T01:03:33.853Z,1.20
2019-03-11T01:06:09.720Z,1.70
2019-03-11T01:08:45.566Z,1.85
2019-03-11T01:11:21.430Z,1.80
2019-03-11T01:13:57.266Z,1.90
2019-03-11T01:16:33.129Z,1.60
2019-03-11T01:19:11.319Z,1.50
2019-03-11T01:21:47.809Z,1.65
2019-03-11T01:24:23.869Z,1.87
2019-03-11T01:27:17.327Z,2.30
2019-03-11T01:29:53.185Z,1.50
2019-03-11T01:32:29.054Z,1.40
2019-03-11T01:35:06.244Z,1.72
2019-03-11T01:37:42.593Z,2.20
2019-03-11T01:40:19.055Z,1.80
2019-03-11T01:42:54.806Z,2.22
2019-03-11T01:45:30.672Z,2.40
2019-03-11T01:48:06.486Z,2.70
2019-03-11T01:50:42.774Z,1.90
2019-03-11T01:53:18.541Z,2.17
2019-03-11T01:55:55.624Z,2.30
2019-03-11T01:58:32.499Z,1.82
2019-03-11T02:01:08.357Z,2.35
2019-03-11T02:03:44.418Z,2.22
2019-03-11T02:06:20.257Z,1.90
2019-03-11T02:08:56.007Z,2.10
2019-03-11T02:11:31.875Z,1.95
2019-03-11T02:14:08.748Z,2.30
2019-03-11T02:16:44.503Z,2.80
2019-03-11T02:19:20.195Z,2.10
2019-03-11T02:21:56.930Z,2.17
2019-03-11T02:24:32.685Z,2.10
2019-03-11T02:27:10.788Z,2.92
2019-03-11T02:29:48.144Z,2.10
2019-03-11T02:32:24.041Z,2.35
2019-03-11T02:34:59.871Z,2.20
2019-03-11T02:37:36.240Z,2.10
2019-03-11T02:40:15.588Z,1.77
2019-03-11T02:42:51.432Z,2.12
2019-03-11T02:45:27.213Z,2.20
2019-03-11T02:48:03.980Z,2.15
2019-03-11T02:50:39.817Z,2.33
2019-03-11T02:53:15.671Z,2.05
2019-03-11T02:55:51.488Z,2.92
2019-03-11T02:58:27.366Z,2.70
2019-03-11T03:01:07.737Z,1.82
2019-03-11T03:03:47.893Z,1.80
2019-03-11T03:06:23.741Z,2.08
2019-03-11T03:09:00.640Z,1.62
2019-03-11T03:11:37.890Z,2.02
2019-03-11T03:14:13.756Z,4.10
2019-03-11T03:16:49.620Z,3.77
2019-03-11T03:19:25.524Z,4.90
2019-03-11T03:22:01.426Z,2.55
2019-03-11T03:24:37.186Z,3.52
2019-03-11T03:27:13.034Z,1.95
2019-03-11T03:29:48.774Z,2.20
2019-03-11T03:32:24.648Z,2.10
2019-03-11T03:35:00.907Z,2.72
2019-03-11T03:37:36.757Z,2.37
2019-03-11T03:40:14.405Z,2.40
2019-03-11T03:42:50.305Z,2.80
2019-03-11T03:45:34.244Z,2.65
2019-03-11T03:51:09.515Z,2.37
2019-03-11T03:53:45.377Z,2.75
2019-03-11T03:56:21.227Z,1.82
2019-03-11T03:58:58.195Z,3.05
2019-03-11T04:01:34.387Z,2.30
2019-03-11T04:04:10.224Z,2.22
2019-03-11T04:06:46.059Z,1.98
2019-03-11T04:09:21.924Z,2.08
2019-03-11T04:11:57.789Z,2.20
2019-03-11T04:14:33.635Z,2.85
2019-03-11T04:17:09.481Z,2.10
2019-03-11T04:19:45.346Z,2.92
2019-03-11T04:22:21.205Z,2.25
2019-03-11T04:24:57.055Z,2.58
2019-03-11T04:27:32.903Z,2.00
2019-03-11T04:30:20.839Z,2.20
2019-03-11T04:32:56.692Z,1.65
2019-03-11T04:35:32.555Z,2.30
2019-03-11T04:38:09.517Z,2.10
2019-03-11T04:40:45.387Z,1.90
2019-03-11T04:43:21.235Z,2.22
2019-03-11T04:45:57.088Z,2.80
2019-03-11T04:48:32.929Z,2.80
2019-03-11T04:51:08.789Z,3.63
2019-03-11T04:53:44.646Z,2.95
2019-03-11T04:56:20.395Z,3.40
2019-03-11T04:58:59.219Z,4.12
2019-03-11T05:01:34.979Z,3.40
2019-03-11T05:04:10.724Z,4.28
2019-03-11T05:06:46.587Z,4.20
2019-03-11T05:09:22.337Z,4.10
2019-03-11T05:11:58.399Z,8.48
2019-03-11T05:14:34.137Z,5.65
2019-03-11T05:17:10.002Z,8.68
2019-03-11T05:19:45.860Z,8.68
2019-03-11T05:22:21.707Z,12.55
2019-03-11T05:24:57.455Z,13.85
2019-03-11T05:27:33.318Z,14.90
2019-03-11T05:30:18.285Z,15.93
2019-03-11T05:32:54.845Z,16.70
2019-03-11T05:35:30.712Z,8.18
2019-03-11T05:38:06.520Z,3.37
2019-03-11T05:40:45.118Z,3.50
2019-03-11T05:43:21.954Z,3.92
2019-03-11T05:45:59.399Z,5.45
2019-03-11T05:48:36.907Z,4.67
2019-03-11T05:51:12.918Z,7.28
2019-03-11T05:53:52.709Z,5.28
2019-03-11T05:56:28.945Z,2.65
2019-03-11T05:59:06.882Z,3.60
2019-03-11T06:01:42.965Z,8.65
2019-03-11T06:04:19.094Z,7.55
2019-03-11T06:06:58.077Z,8.10
2019-03-11T06:09:39.897Z,10.43
2019-03-11T06:12:22.624Z,9.73
2019-03-11T06:15:05.322Z,9.83
2019-03-11T06:20:21.595Z,19.00
2019-03-11T06:22:58.165Z,25.17
2019-03-11T06:25:33.913Z,10.55
2019-03-11T06:28:09.773Z,7.35
2019-03-11T06:30:45.523Z,7.33
2019-03-11T06:33:21.270Z,8.10
2019-03-11T06:35:57.027Z,6.03
2019-03-11T06:38:32.987Z,7.67
2019-03-11T06:41:08.740Z,5.40
2019-03-11T06:43:44.686Z,5.53
2019-03-11T06:46:20.558Z,4.83
2019-03-11T06:48:56.407Z,4.75
2019-03-11T06:51:32.246Z,4.20
2019-03-11T06:54:08.106Z,3.05
2019-03-11T06:56:43.861Z,5.55
2019-03-11T06:59:19.941Z,3.10
2019-03-11T07:01:55.690Z,4.40
2019-03-11T07:04:31.629Z,13.28
2019-03-11T07:07:07.576Z,16.27
2019-03-11T07:09:43.431Z,3.22
2019-03-11T07:12:19.283Z,3.30
2019-03-11T07:14:55.147Z,2.90
2019-03-11T07:17:30.987Z,3.22
2019-03-11T07:20:12.408Z,3.60
2019-03-11T07:22:48.232Z,2.25
2019-03-11T07:25:24.088Z,3.17
2019-03-11T07:28:00.654Z,2.30
2019-03-11T07:30:36.506Z,2.75
2019-03-11T07:33:12.559Z,3.20
2019-03-11T07:35:48.426Z,6.95
2019-03-11T07:38:25.361Z,4.60
2019-03-11T07:41:01.148Z,2.67
2019-03-11T07:43:37.004Z,2.80
2019-03-11T07:46:12.860Z,2.70
2019-03-11T07:48:50.202Z,2.27
2019-03-11T07:51:25.999Z,3.70
2019-03-11T07:54:02.903Z,2.90
2019-03-11T07:56:38.679Z,3.08
2019-03-11T07:59:14.421Z,2.35
2019-03-11T08:01:50.501Z,2.22
2019-03-11T08:04:26.374Z,2.60
2019-03-11T08:07:02.128Z,2.33
2019-03-11T08:09:38.495Z,2.77
2019-03-11T08:12:14.682Z,3.62
2019-03-11T08:14:50.645Z,2.35
2019-03-11T08:17:26.359Z,2.50
2019-03-11T08:20:05.615Z,2.20
2019-03-11T08:22:41.344Z,2.55
2019-03-11T08:25:17.348Z,2.50
2019-03-11T08:27:53.101Z,2.80
2019-03-11T08:30:28.930Z,3.40
2019-03-11T08:33:04.679Z,3.12
2019-03-11T08:35:40.734Z,3.12
2019-03-11T08:38:16.495Z,2.10
2019-03-11T08:40:52.360Z,2.65
2019-03-11T08:43:28.091Z,2.20
2019-03-11T08:46:03.951Z,2.05
2019-03-11T08:48:39.642Z,2.20
2019-03-11T08:51:15.458Z,2.58
2019-03-11T08:53:51.210Z,3.08
2019-03-11T08:56:27.055Z,4.97
2019-03-11T08:59:02.919Z,5.05
2019-03-11T09:01:38.668Z,3.87
2019-03-11T09:04:14.414Z,4.72
2019-03-11T09:06:50.169Z,9.25
2019-03-11T09:09:26.788Z,5.97
2019-03-11T09:12:02.702Z,11.12
2019-03-11T09:14:38.520Z,4.90
2019-03-11T09:17:14.315Z,8.75
2019-03-11T09:19:50.061Z,10.53
2019-03-11T09:22:25.904Z,6.35
2019-03-11T09:25:02.410Z,8.48
2019-03-11T09:27:38.656Z,5.83
2019-03-11T09:30:20.347Z,9.43
2019-03-11T09:32:56.296Z,5.70
2019-03-11T09:35:32.151Z,8.30
2019-03-11T09:38:08.003Z,6.92
2019-03-11T09:40:43.849Z,7.28
2019-03-11T09:43:19.712Z,10.68
2019-03-11T09:45:55.558Z,10.35
2019-03-11T09:48:31.625Z,6.87
2019-03-11T09:51:07.424Z,7.60
2019-03-11T09:53:43.324Z,11.15
2019-03-11T09:56:19.178Z,11.15
2019-03-11T09:58:55.549Z,5.40
2019-03-11T10:01:32.941Z,5.33
2019-03-11T10:04:08.792Z,6.95
2019-03-11T10:06:44.641Z,4.78
2019-03-11T10:09:20.498Z,3.95
2019-03-11T10:11:56.355Z,3.20
2019-03-11T10:14:32.262Z,3.25
2019-03-11T10:17:08.071Z,3.37
2019-03-11T10:19:43.917Z,3.95
2019-03-11T10:22:19.777Z,5.03
2019-03-11T10:24:55.613Z,4.28
2019-03-11T10:27:31.468Z,5.45
2019-03-11T10:30:12.453Z,4.10
2019-03-11T10:32:48.192Z,4.43
2019-03-11T10:35:31.992Z,4.00
2019-03-11T10:38:01.558Z,2.62
2019-03-11T10:40:37.403Z,2.33
2019-03-11T10:43:13.262Z,2.75
2019-03-11T10:45:49.116Z,4.00
2019-03-11T10:48:36.368Z,2.75
2019-03-11T10:51:02.950Z,4.40
2019-03-11T10:53:39.028Z,2.60
2019-03-11T10:56:14.884Z,3.50
2019-03-11T10:58:50.741Z,3.20
2019-03-11T11:01:26.477Z,3.60
2019-03-11T11:04:02.345Z,6.20
2019-03-11T11:06:39.225Z,4.28
2019-03-11T11:09:15.177Z,3.50
2019-03-11T11:11:50.930Z,3.12
2019-03-11T11:14:26.777Z,3.47
2019-03-11T11:17:02.643Z,3.20
2019-03-11T11:19:38.695Z,3.92
2019-03-11T11:22:14.550Z,3.33
2019-03-11T11:24:50.405Z,3.40
2019-03-11T11:27:26.236Z,3.33
2019-03-11T11:30:02.100Z,5.90
2019-03-11T11:32:38.158Z,3.85
2019-03-11T11:35:14.734Z,3.47
2019-03-11T11:37:50.529Z,3.70
2019-03-11T11:40:28.190Z,3.55
2019-03-11T11:43:04.139Z,3.77
2019-03-11T11:45:39.993Z,2.98
2019-03-11T11:48:15.753Z,3.00
2019-03-11T11:50:51.699Z,3.10
2019-03-11T11:53:27.568Z,4.58
2019-03-11T11:56:03.415Z,3.00
2019-03-11T11:58:40.906Z,3.50
2019-03-11T12:01:16.970Z,4.33
2019-03-11T12:03:52.809Z,2.62
2019-03-11T12:06:28.669Z,4.50
2019-03-11T12:09:05.964Z,3.35
2019-03-11T12:11:43.367Z,3.90
2019-03-11T12:14:19.213Z,4.55
2019-03-11T12:16:55.262Z,3.30
2019-03-11T12:19:31.114Z,4.17
2019-03-11T12:22:06.961Z,3.72
2019-03-11T12:24:42.727Z,3.17
2019-03-11T12:27:18.569Z,3.60
2019-03-11T12:29:54.431Z,3.05
2019-03-11T12:32:30.287Z,3.40
2019-03-11T12:35:07.396Z,3.42
2019-03-11T12:37:43.329Z,4.15
2019-03-11T12:40:19.286Z,4.27
2019-03-11T12:42:55.735Z,7.03
2019-03-11T12:45:31.797Z,2.70
2019-03-11T12:48:08.794Z,2.47
2019-03-11T12:50:44.638Z,3.00
2019-03-11T12:53:20.389Z,2.80
2019-03-11T12:55:56.243Z,2.15
2019-03-11T12:58:40.954Z,2.37
2019-03-11T13:01:09.589Z,2.08
2019-03-11T13:03:45.448Z,2.08
2019-03-11T13:06:21.319Z,4.30
2019-03-11T13:09:00.380Z,2.00
2019-03-11T13:11:40.067Z,2.87
2019-03-11T13:14:15.932Z,2.77
2019-03-11T13:16:51.781Z,3.05
2019-03-11T13:19:27.630Z,4.08
2019-03-11T13:22:04.004Z,5.28
2019-03-11T13:24:39.857Z,3.75
2019-03-11T13:27:15.702Z,4.92
2019-03-11T13:29:51.566Z,2.45
2019-03-11T13:32:27.410Z,2.90
2019-03-11T13:35:03.284Z,3.17
2019-03-11T13:37:39.122Z,4.30
2019-03-11T13:40:16.173Z,3.27
2019-03-11T13:42:52.065Z,4.30
2019-03-11T13:45:27.919Z,3.75
2019-03-11T13:48:03.762Z,3.30
2019-03-11T13:50:39.624Z,4.12
2019-03-11T13:53:15.478Z,2.85
2019-03-11T13:55:51.335Z,3.52
2019-03-11T13:58:27.190Z,1.87
2019-03-11T14:01:02.930Z,2.27
2019-03-11T14:03:39.073Z,2.85
2019-03-11T14:06:14.944Z,2.47
2019-03-11T14:08:50.810Z,2.22
2019-03-11T14:11:26.759Z,2.87
2019-03-11T14:14:02.508Z,3.20
2019-03-11T14:16:38.672Z,4.05
2019-03-11T14:19:14.533Z,4.35
2019-03-11T14:21:51.355Z,5.10
2019-03-11T14:24:27.156Z,6.00
2019-03-11T14:27:03.022Z,5.50
2019-03-11T14:29:38.872Z,11.73
2019-03-11T14:32:14.762Z,13.30
2019-03-11T14:34:50.881Z,11.57
2019-03-11T14:37:26.739Z,20.40
2019-03-11T14:40:02.581Z,22.60
2019-03-11T14:42:38.333Z,24.57
2019-03-11T14:45:18.811Z,31.55
2019-03-11T14:47:54.667Z,33.25
2019-03-11T14:50:31.532Z,34.50
2019-03-11T14:53:07.504Z,23.67
2019-03-11T14:55:43.341Z,28.27
2019-03-11T14:58:29.071Z,24.63
2019-03-11T15:00:56.796Z,34.50
2019-03-11T15:03:32.642Z,30.37
2019-03-11T15:06:08.558Z,29.10
2019-03-11T15:08:44.355Z,25.35
2019-03-11T15:11:20.599Z,10.53
2019-03-11T15:13:57.603Z,8.50
2019-03-11T15:16:33.457Z,7.35
2019-03-11T15:19:09.306Z,21.85
2019-03-11T15:21:45.161Z,34.43
2019-03-11T15:24:21.025Z,46.83
2019-03-11T15:26:56.863Z,28.20
2019-03-11T15:29:32.721Z,21.87
2019-03-11T15:32:08.550Z,16.10
2019-03-11T15:34:44.431Z,10.65
2019-03-11T15:37:21.406Z,14.13
2019-03-11T15:39:57.269Z,16.97
2019-03-11T15:42:33.117Z,14.18
2019-03-11T15:45:14.503Z,20.12
2019-03-11T15:47:50.863Z,16.97
2019-03-11T15:50:34.487Z,17.05
2019-03-11T15:53:10.372Z,14.98
2019-03-11T15:55:46.105Z,18.90
2019-03-11T15:58:23.099Z,16.15
2019-03-11T16:00:58.848Z,20.88
2019-03-11T16:03:36.594Z,20.95
2019-03-11T16:06:12.197Z,23.25
2019-03-11T16:08:48.360Z,27.13
2019-03-11T16:11:24.209Z,31.30
2019-03-11T16:14:00.160Z,20.45
2019-03-11T16:16:36.030Z,11.30
2019-03-11T16:19:11.871Z,12.63
2019-03-11T16:21:47.725Z,14.60
2019-03-11T16:24:23.578Z,17.35
2019-03-11T16:26:59.406Z,17.25
2019-03-11T16:29:35.274Z,15.98
2019-03-11T16:32:12.163Z,13.78
2019-03-11T16:34:48.219Z,18.12
2019-03-11T16:37:24.087Z,20.17
2019-03-11T16:40:00.043Z,21.52
2019-03-11T16:42:35.895Z,17.95
2019-03-11T16:45:19.120Z,13.22
2019-03-11T16:47:55.993Z,18.65
2019-03-11T16:50:31.849Z,16.40
2019-03-11T16:53:07.707Z,15.75
2019-03-11T16:55:47.949Z,22.48
2019-03-11T16:58:23.808Z,19.30
2019-03-11T17:01:01.316Z,16.05
2019-03-11T17:03:38.071Z,24.75
2019-03-11T17:06:13.930Z,21.40
2019-03-11T17:08:49.779Z,29.25
2019-03-11T17:11:25.640Z,21.90
2019-03-11T17:14:01.382Z,18.17
2019-03-11T17:16:37.118Z,14.23
2019-03-11T17:19:12.994Z,14.33
2019-03-11T17:21:48.743Z,15.20
2019-03-11T17:24:24.498Z,33.98
2019-03-11T17:27:00.462Z,46.68
2019-03-11T17:29:36.296Z,59.65
2019-03-11T17:32:13.036Z,32.40
2019-03-11T17:34:48.855Z,26.27
2019-03-11T17:37:24.803Z,15.28
2019-03-11T17:40:00.627Z,14.83
2019-03-11T17:42:36.711Z,16.67
2019-03-11T17:45:13.780Z,19.10
2019-03-11T17:47:49.754Z,18.95
2019-03-11T17:50:26.076Z,24.18
2019-03-11T17:53:02.042Z,26.57
2019-03-11T17:55:38.014Z,26.50
2019-03-11T17:58:14.090Z,21.48
2019-03-11T18:00:55.473Z,21.10
2019-03-11T18:03:28.652Z,20.75
2019-03-11T18:06:11.490Z,20.68
2019-03-11T18:08:42.213Z,15.53
2019-03-11T18:11:17.955Z,15.53
2019-03-11T18:13:53.823Z,17.73
2019-03-11T18:16:29.558Z,18.15
2019-03-11T18:19:05.728Z,22.22
2019-03-11T18:21:41.472Z,24.92
2019-03-11T18:24:17.543Z,20.82
2019-03-11T18:26:53.398Z,18.95
2019-03-11T18:29:29.674Z,17.60
2019-03-11T18:32:05.409Z,20.02
2019-03-11T18:34:41.278Z,27.85
2019-03-11T18:37:17.033Z,28.32
2019-03-11T18:39:52.996Z,24.87
2019-03-11T18:42:28.856Z,21.87
2019-03-11T18:45:06.616Z,22.05
2019-03-11T18:47:42.401Z,21.17
2019-03-11T18:50:23.213Z,24.87
2019-03-11T18:52:59.107Z,29.87
2019-03-11T18:55:35.069Z,34.23
2019-03-11T18:58:11.155Z,30.97
2019-03-11T19:00:47.069Z,25.52
2019-03-11T19:03:22.831Z,22.90
2019-03-11T19:05:58.677Z,26.75
2019-03-11T19:08:34.762Z,20.45
2019-03-11T19:11:10.610Z,23.32
2019-03-11T19:13:46.488Z,48.58
2019-03-11T19:16:22.403Z,35.45
2019-03-11T19:18:58.165Z,27.30
2019-03-11T19:21:34.075Z,29.00
2019-03-11T19:24:10.072Z,23.73
2019-03-11T19:26:46.290Z,26.45
2019-03-11T19:29:22.283Z,24.15
2019-03-11T19:31:59.124Z,20.65
2019-03-11T19:34:34.934Z,19.80
2019-03-11T19:37:10.771Z,21.80
2019-03-11T19:39:46.560Z,19.20
2019-03-11T19:42:23.875Z,14.45
2019-03-11T19:44:59.697Z,14.60
2019-03-11T19:47:35.514Z,13.98
2019-03-11T19:50:13.517Z,11.93
2019-03-11T19:52:58.378Z,15.45
2019-03-11T19:55:26.978Z,14.20
2019-03-11T19:58:02.852Z,19.35
2019-03-11T20:00:39.694Z,11.15
2019-03-11T20:03:27.893Z,12.78
2019-03-11T20:06:02.047Z,14.10
2019-03-11T20:08:38.041Z,13.78
2019-03-11T20:11:14.103Z,13.70
2019-03-11T20:13:51.245Z,13.88
2019-03-11T20:16:27.066Z,13.60
2019-03-11T20:19:02.965Z,16.17
2019-03-11T20:21:38.794Z,14.90
2019-03-11T20:24:14.663Z,14.80
2019-03-11T20:26:50.557Z,12.35
2019-03-11T20:29:26.477Z,14.73
2019-03-11T20:32:02.363Z,14.20
2019-03-11T20:34:38.408Z,12.70
2019-03-11T20:37:14.163Z,15.93
2019-03-11T20:39:49.996Z,13.18
2019-03-11T20:42:25.776Z,12.47
2019-03-11T20:45:01.733Z,14.53
2019-03-11T20:47:37.843Z,14.43
2019-03-11T20:50:15.287Z,14.60
2019-03-11T20:52:51.169Z,16.23
2019-03-11T20:55:26.961Z,12.13
2019-03-11T20:58:03.203Z,12.98
2019-03-11T21:00:39.072Z,13.18
2019-03-11T21:03:15.068Z,13.00
2019-03-11T21:05:53.594Z,13.93
2019-03-11T21:08:29.431Z,13.05
2019-03-11T21:11:05.338Z,20.97
2019-03-11T21:13:41.228Z,31.15
2019-03-11T21:16:17.089Z,22.80
2019-03-11T21:18:52.987Z,21.70
2019-03-11T21:21:28.899Z,26.97
2019-03-11T21:24:04.754Z,26.90
2019-03-11T21:26:40.645Z,30.30
2019-03-11T21:29:16.611Z,30.72
2019-03-11T21:31:52.546Z,26.93
2019-03-11T21:34:28.392Z,18.60
2019-03-11T21:37:04.246Z,21.80
2019-03-11T21:39:40.087Z,19.70
2019-03-11T21:42:15.934Z,19.70
2019-03-11T21:44:51.951Z,22.85
2019-03-11T21:47:27.789Z,28.70
2019-03-11T21:50:04.605Z,24.72
2019-03-11T21:52:40.368Z,20.55
2019-03-11T21:55:16.842Z,23.98
2019-03-11T21:57:52.790Z,23.35
2019-03-11T22:00:34.319Z,15.95
2019-03-11T22:03:06.548Z,16.60
2019-03-11T22:05:42.407Z,14.95
2019-03-11T22:08:18.250Z,14.25
2019-03-11T22:10:54.042Z,12.35
2019-03-11T22:13:31.141Z,12.45
2019-03-11T22:16:07.051Z,12.15
2019-03-11T22:18:42.897Z,13.28
2019-03-11T22:21:19.881Z,13.13
2019-03-11T22:23:55.657Z,12.80
2019-03-11T22:26:31.493Z,15.70
2019-03-11T22:29:07.339Z,20.37
2019-03-11T22:31:43.293Z,18.57
2019-03-11T22:34:19.151Z,19.45
2019-03-11T22:36:56.116Z,16.75
2019-03-11T22:39:32.061Z,20.65
2019-03-11T22:42:07.948Z,21.20
2019-03-11T22:44:43.795Z,20.35
2019-03-11T22:47:19.645Z,18.55
2019-03-11T22:49:55.510Z,19.10
2019-03-11T22:52:31.364Z,18.60
2019-03-11T22:55:11.067Z,20.05
2019-03-11T22:57:46.848Z,18.07
2019-03-11T23:00:35.914Z,20.53
2019-03-11T23:03:13.194Z,19.10
2019-03-11T23:05:57.641Z,18.90
2019-03-11T23:08:26.661Z,19.20
2019-03-11T23:11:02.498Z,18.12
2019-03-11T23:13:38.459Z,19.45
2019-03-11T23:16:14.313Z,18.82
2019-03-11T23:18:50.180Z,18.80
2019-03-11T23:21:26.028Z,19.48
2019-03-11T23:24:01.909Z,18.80
2019-03-11T23:26:37.728Z,19.55
2019-03-11T23:29:13.475Z,17.25
2019-03-11T23:31:49.343Z,18.65
2019-03-11T23:34:25.198Z,17.30
2019-03-11T23:37:01.053Z,16.65
2019-03-11T23:39:36.894Z,18.80
2019-03-11T23:42:12.759Z,15.23
2019-03-11T23:44:48.492Z,15.53
2019-03-11T23:47:24.359Z,13.68
2019-03-11T23:50:00.424Z,13.72
2019-03-11T23:52:36.263Z,13.80
2019-03-11T23:55:12.852Z,13.50
2019-03-11T23:57:48.705Z,13.50
